Weather History for Laurens, SC

Change the Weather History Date:

Saturday, May 4, 2013

  Actual Average (KGSP) Record (KGSP)
Temperature  
Mean Temperature 55 °F 65 °F  
Max Temperature 59 °F 77 °F 91 °F (1887)
Min Temperature 51 °F 54 °F 30 °F (1885)
Degree Days  
Heating Degree Days 10 2  
Month to date heating degree days 11  
Since 1 July heating degree days 3017  
Cooling Degree Days 0 3  
Month to date cooling degree days 10  
Year to date cooling degree days 58  
Growing Degree Days 5 (Base 50)    
Moisture  
Dew Point 49 °F    
Average Humidity 84    
Maximum Humidity 100    
Minimum Humidity 59    
Precipitation  
Precipitation 0.38 in 0.12 in 2.00 in (2002)
Month to date precipitation 0.49  
Year to date precipitation 16.16  
Snow  
Snow 0.00 in 0.00 in 0.00 in ()
Month to date snowfall 0.0  
Since 1 July snowfall 4.7  
Snow Depth -    
Sea Level Pressure  
Sea Level Pressure 30.03 in    
Wind  
Wind Speed 11 mph (ENE)    
Max Wind Speed 18 mph    
Max Gust Speed 25 mph    
Visibility 9 miles    
Events Rain    
T = Trace of Precipitation, MM = Missing Value Source: NWS Daily Summary

Daily Weather History Graph

Daily Weather History Graph

Search for Another Location

Airport:

Trip Planner

Search our weather history database for the weather conditions in past years. The results will help you decide how hot, cold, wet, or windy it might be!

Date:

Astronomy

May. 04, 2013 Rise Set
Actual Time 6:34 AM EDT 8:15 PM EDT
Civil Twilight 6:07 AM EDT 8:42 PM EDT
Nautical Twilight 5:34 AM EDT 9:14 PM EDT
Astronomical Twilight 5:00 AM EDT 9:49 PM EDT
Moon 3:18 AM EDT (5/4) 3:23 PM EDT (5/4)
Length of Visible Light 14h 34m
Length of Day
13h 40m
Waning Crescent, 27% of the Moon is Illuminated
May 4
Waning Crescent
May 9
New
May 18
First Quarter
May 25
Full
May 31
Last Quarter

Hourly Weather History & Observations

Time (EDT) Temp. Dew Point Humidity Pressure Visibility Wind Dir Wind Speed Gust Speed Precip Events Conditions
12:15 AM 59.0 °F 53.6 °F 82% 30.08 in 10.0 mi East 9.2 mph 16.1 mph N/A   Overcast
12:35 AM 59.0 °F 51.8 °F 77% 30.08 in 10.0 mi East 13.8 mph 20.7 mph N/A   Overcast
12:55 AM 59.0 °F 48.2 °F 67% 30.08 in 10.0 mi East 17.3 mph 25.3 mph N/A   Overcast
1:15 AM 59.0 °F 46.4 °F 63% 30.08 in 10.0 mi East 10.4 mph 21.9 mph N/A   Overcast
1:35 AM 59.0 °F 44.6 °F 59% 30.08 in 10.0 mi East 11.5 mph 19.6 mph N/A   Overcast
1:55 AM 57.2 °F 46.4 °F 67% 30.07 in 10.0 mi East 10.4 mph 16.1 mph N/A   Overcast
2:15 AM 55.4 °F 42.8 °F 63% 30.06 in 10.0 mi East 11.5 mph 17.3 mph N/A   Overcast
2:35 AM 55.4 °F 42.8 °F 63% 30.06 in 10.0 mi ENE 12.7 mph 17.3 mph N/A   Overcast
2:55 AM 55.4 °F 42.8 °F 63% 30.06 in 10.0 mi ENE 10.4 mph 17.3 mph N/A   Overcast
3:15 AM 55.4 °F 42.8 °F 63% 30.06 in 10.0 mi ENE 9.2 mph 17.3 mph N/A   Overcast
3:35 AM 53.6 °F 42.8 °F 67% 30.05 in 10.0 mi ENE 12.7 mph 18.4 mph N/A   Overcast
3:55 AM 53.6 °F 42.8 °F 67% 30.05 in 10.0 mi ENE 9.2 mph 18.4 mph N/A   Overcast
4:15 AM 53.6 °F 44.6 °F 72% 30.06 in 10.0 mi ENE 8.1 mph 18.4 mph N/A   Overcast
4:35 AM 53.6 °F 42.8 °F 67% 30.06 in 10.0 mi ENE 15.0 mph 20.7 mph N/A   Overcast
4:55 AM 53.6 °F 42.8 °F 67% 30.06 in 10.0 mi ENE 13.8 mph 19.6 mph N/A   Overcast
5:15 AM 51.8 °F 42.8 °F 71% 30.06 in 10.0 mi ENE 12.7 mph 17.3 mph N/A   Overcast
5:35 AM 51.8 °F 42.8 °F 71% 30.06 in 10.0 mi ENE 10.4 mph 18.4 mph N/A   Overcast
5:55 AM 51.8 °F 42.8 °F 71% 30.06 in 10.0 mi ENE 11.5 mph 18.4 mph N/A   Overcast
6:15 AM 51.8 °F 42.8 °F 71% 30.06 in 10.0 mi ENE 9.2 mph 16.1 mph N/A   Overcast
6:35 AM 51.8 °F 42.8 °F 71% 30.08 in 10.0 mi ENE 10.4 mph 20.7 mph N/A   Overcast
6:55 AM 51.8 °F 42.8 °F 71% 30.08 in 10.0 mi ENE 9.2 mph 17.3 mph N/A   Overcast
7:15 AM 51.8 °F 44.6 °F 76% 30.08 in 10.0 mi NE 12.7 mph 18.4 mph N/A   Overcast
7:35 AM 51.8 °F 44.6 °F 76% 30.08 in 10.0 mi ENE 8.1 mph 19.6 mph N/A   Overcast
7:55 AM 51.8 °F 44.6 °F 76% 30.08 in 10.0 mi NE 15.0 mph 19.6 mph N/A   Overcast
8:15 AM 51.8 °F 44.6 °F 76% 30.07 in 10.0 mi NE 11.5 mph 20.7 mph N/A   Overcast
8:35 AM 51.8 °F 44.6 °F 76% 30.08 in 10.0 mi ENE 11.5 mph 20.7 mph N/A   Overcast
8:55 AM 51.8 °F 44.6 °F 76% 30.07 in 10.0 mi NE 12.7 mph 23.0 mph N/A   Overcast
9:15 AM 51.8 °F 46.4 °F 82% 30.07 in 10.0 mi ENE 10.4 mph 18.4 mph N/A   Overcast
9:35 AM 51.8 °F 46.4 °F 82% 30.07 in 10.0 mi ENE 9.2 mph - N/A   Overcast
9:55 AM 51.8 °F 46.4 °F 82% 30.07 in 10.0 mi ENE 11.5 mph 18.4 mph N/A   Overcast
10:15 AM 51.8 °F 46.4 °F 82% 30.07 in 10.0 mi East 18.4 mph 23.0 mph N/A   Overcast
10:35 AM 53.6 °F 46.4 °F 77% 30.06 in 10.0 mi East 15.0 mph 20.7 mph N/A   Overcast
10:55 AM 53.6 °F 46.4 °F 77% 30.06 in 10.0 mi ENE 10.4 mph 18.4 mph N/A   Overcast
11:15 AM 53.6 °F 48.2 °F 82% 30.06 in 10.0 mi ENE 9.2 mph 18.4 mph N/A   Overcast
11:35 AM 53.6 °F 48.2 °F 82% 30.06 in 10.0 mi ENE 8.1 mph - N/A   Overcast
11:55 AM 55.4 °F 48.2 °F 77% 30.04 in 10.0 mi ENE 16.1 mph 23.0 mph N/A   Overcast
12:15 PM 55.4 °F 50.0 °F 82% 30.04 in 10.0 mi ENE 10.4 mph 24.2 mph N/A   Overcast
12:35 PM 55.4 °F 50.0 °F 82% 30.04 in 10.0 mi East 13.8 mph 19.6 mph N/A   Overcast
12:55 PM 55.4 °F 50.0 °F 82% 30.04 in 10.0 mi ENE 13.8 mph 17.3 mph N/A   Overcast
1:15 PM 55.4 °F 50.0 °F 82% 30.04 in 10.0 mi ENE 9.2 mph 17.3 mph N/A   Overcast
1:35 PM 55.4 °F 50.0 °F 82% 30.04 in 10.0 mi ENE 11.5 mph 16.1 mph N/A   Overcast
1:55 PM 55.4 °F 51.8 °F 88% 30.03 in 10.0 mi ENE 11.5 mph - N/A   Overcast
2:15 PM 55.4 °F 51.8 °F 88% 30.02 in 10.0 mi ENE 11.5 mph 16.1 mph N/A   Overcast
2:35 PM 55.4 °F 51.8 °F 88% 30.02 in 10.0 mi ENE 8.1 mph 16.1 mph N/A   Overcast
2:55 PM 55.4 °F 51.8 °F 88% 30.01 in 10.0 mi ENE 6.9 mph - N/A   Overcast
3:15 PM 55.4 °F 51.8 °F 88% 30.00 in 10.0 mi ENE 8.1 mph - N/A   Overcast
3:35 PM 55.4 °F 53.6 °F 94% 29.99 in 10.0 mi NE 6.9 mph - N/A Rain Light Rain
3:55 PM 55.4 °F 55.4 °F 100% 29.98 in 10.0 mi NE 8.1 mph - N/A Rain Light Rain
4:15 PM 55.4 °F 55.4 °F 100% 29.99 in 10.0 mi ENE 5.8 mph - N/A   Mostly Cloudy
4:35 PM 55.4 °F 53.6 °F 94% 30.00 in 10.0 mi NE 6.9 mph - N/A   Mostly Cloudy
4:55 PM 55.4 °F 53.6 °F 94% 29.98 in 10.0 mi NE 11.5 mph - N/A   Overcast
5:15 PM 55.4 °F 53.6 °F 94% 29.97 in 7.0 mi ENE 8.1 mph 19.6 mph 0.02 in Rain Heavy Rain
5:35 PM 55.4 °F 55.4 °F 100% 29.96 in 3.0 mi NE 9.2 mph - 0.12 in Rain Rain
5:55 PM 55.4 °F 55.4 °F 100% 29.97 in 5.0 mi East 10.4 mph 16.1 mph 0.15 in Rain Rain
6:15 PM 53.6 °F 53.6 °F 100% 29.96 in 7.0 mi ENE 8.1 mph - N/A Rain Light Rain
6:35 PM 53.6 °F 53.6 °F 100% 29.96 in 5.0 mi ENE 10.4 mph 18.4 mph 0.02 in Rain Rain
6:55 PM 53.6 °F 53.6 °F 100% 29.97 in 7.0 mi ENE 8.1 mph - 0.02 in   Drizzle
7:15 PM 53.6 °F 53.6 °F 100% 29.96 in 7.0 mi ENE 11.5 mph 20.7 mph 0.01 in Rain Light Rain
7:35 PM 53.6 °F 53.6 °F 100% 29.95 in 7.0 mi ENE 12.7 mph 18.4 mph 0.01 in   Overcast
7:55 PM 53.6 °F 53.6 °F 100% 29.95 in 7.0 mi ENE 10.4 mph 17.3 mph 0.01 in   Overcast
8:15 PM 53.6 °F 53.6 °F 100% 29.94 in 10.0 mi ENE 9.2 mph - N/A   Overcast
8:35 PM 53.6 °F 53.6 °F 100% 29.93 in 10.0 mi ENE 11.5 mph 17.3 mph N/A Rain Light Rain
8:55 PM 53.6 °F 53.6 °F 100% 29.94 in 10.0 mi NE 9.2 mph - N/A   Light Drizzle
9:15 PM 55.4 °F 55.4 °F 100% 29.96 in 10.0 mi ENE 3.5 mph - N/A   Overcast
9:35 PM 53.6 °F 53.6 °F 100% 29.97 in 5.0 mi NNE 5.8 mph - 0.03 in Rain Rain
9:55 PM 53.6 °F 53.6 °F 100% 29.97 in 7.0 mi NE 4.6 mph - 0.07 in Rain Light Rain
10:15 PM 53.6 °F 53.6 °F 100% 29.98 in 7.0 mi NE 5.8 mph - 0.01 in Rain Light Rain
10:35 PM 53.6 °F 53.6 °F 100% 29.99 in 7.0 mi North 3.5 mph - 0.02 in Rain Rain
10:55 PM 53.6 °F 53.6 °F 100% 29.97 in 5.0 mi NNE 4.6 mph - 0.05 in Rain Light Rain
11:15 PM 53.6 °F 53.6 °F 100% 29.99 in 5.0 mi North 3.5 mph - 0.03 in Rain Light Rain
11:35 PM 53.6 °F 53.6 °F 100% 29.96 in 7.0 mi NE 9.2 mph - 0.04 in Rain Rain
11:55 PM 53.6 °F 53.6 °F 100% 29.96 in 5.0 mi NE 6.9 mph - 0.08 in Rain Rain